createdAt,value
2019-02-12T00:01:52.275Z,77.93
2019-02-12T00:04:22.596Z,78.16
2019-02-12T00:06:52.814Z,78.13
2019-02-12T00:09:23.014Z,77.90
2019-02-12T00:11:53.236Z,77.92
2019-02-12T00:14:23.520Z,78.38
2019-02-12T00:16:53.746Z,78.67
2019-02-12T00:19:24.078Z,78.46
2019-02-12T00:21:54.256Z,78.47
2019-02-12T00:24:24.679Z,78.54
2019-02-12T00:26:54.926Z,78.67
2019-02-12T00:29:25.153Z,79.07
2019-02-12T00:31:55.343Z,79.28
2019-02-12T00:34:25.575Z,79.52
2019-02-12T00:36:55.845Z,79.02
2019-02-12T00:39:26.100Z,79.04
2019-02-12T00:41:56.320Z,79.45
2019-02-12T00:44:26.513Z,78.93
2019-02-12T00:46:56.761Z,79.12
2019-02-12T00:49:27.036Z,79.14
2019-02-12T00:51:57.255Z,79.35
2019-02-12T00:54:27.516Z,79.54
2019-02-12T00:56:57.703Z,79.99
2019-02-12T00:59:27.979Z,80.73
2019-02-12T01:01:59.562Z,80.98
2019-02-12T01:04:29.794Z,81.32
2019-02-12T01:07:00.030Z,81.34
2019-02-12T01:09:30.606Z,81.36
2019-02-12T01:12:00.826Z,81.87
2019-02-12T01:14:31.028Z,82.19
2019-02-12T01:17:01.214Z,82.05
2019-02-12T01:19:31.449Z,82.20
2019-02-12T01:22:01.704Z,82.22
2019-02-12T01:24:32.001Z,81.79
2019-02-12T01:27:02.397Z,81.51
2019-02-12T01:29:32.621Z,81.00
2019-02-12T01:32:02.899Z,80.99
2019-02-12T01:34:33.164Z,80.93
2019-02-12T01:37:03.386Z,80.87
2019-02-12T01:39:33.743Z,80.90
2019-02-12T01:42:03.937Z,81.30
2019-02-12T01:44:34.409Z,81.18
2019-02-12T01:47:04.625Z,81.34
2019-02-12T01:49:34.848Z,81.43
2019-02-12T01:52:05.087Z,80.90
2019-02-12T01:54:35.338Z,80.90
2019-02-12T01:57:05.552Z,80.53
2019-02-12T01:59:35.766Z,80.83
2019-02-12T02:02:06.511Z,80.63
2019-02-12T02:04:36.798Z,80.36
2019-02-12T02:07:07.056Z,80.29
2019-02-12T02:09:37.376Z,80.26
2019-02-12T02:12:07.612Z,80.31
2019-02-12T02:14:37.861Z,80.39
2019-02-12T02:17:08.096Z,80.58
2019-02-12T02:19:38.285Z,80.83
2019-02-12T02:22:08.545Z,81.04
2019-02-12T02:24:38.758Z,81.48
2019-02-12T02:27:08.921Z,81.65
2019-02-12T02:29:39.169Z,82.02
2019-02-12T02:32:09.421Z,82.35
2019-02-12T02:34:39.653Z,82.31
2019-02-12T02:37:09.878Z,82.14
2019-02-12T02:39:40.115Z,82.01
2019-02-12T02:42:10.374Z,82.40
2019-02-12T02:44:40.638Z,82.38
2019-02-12T02:47:10.821Z,82.23
2019-02-12T02:49:41.047Z,82.27
2019-02-12T02:52:11.273Z,82.20
2019-02-12T02:54:41.552Z,82.19
2019-02-12T02:57:11.965Z,82.09
2019-02-12T02:59:42.173Z,82.03
2019-02-12T03:02:12.715Z,82.12
2019-02-12T03:04:42.943Z,81.80
2019-02-12T03:07:13.306Z,81.95
2019-02-12T03:09:43.499Z,82.60
2019-02-12T03:12:13.908Z,81.92
2019-02-12T03:14:44.079Z,82.03
2019-02-12T03:17:14.276Z,81.93
2019-02-12T03:19:44.520Z,81.89
2019-02-12T03:22:14.794Z,82.21
2019-02-12T03:24:44.993Z,82.66
2019-02-12T03:27:15.400Z,83.59
2019-02-12T03:29:45.623Z,84.02
2019-02-12T03:32:15.814Z,84.31
2019-02-12T03:34:46.124Z,84.41
2019-02-12T03:37:16.383Z,84.75
2019-02-12T03:39:46.590Z,85.86
2019-02-12T03:42:17.001Z,86.42
2019-02-12T03:44:47.318Z,87.18
2019-02-12T03:47:17.562Z,87.87
2019-02-12T03:49:47.797Z,88.77
2019-02-12T03:52:18.030Z,89.01
2019-02-12T03:54:49.279Z,89.27
2019-02-12T03:57:19.552Z,88.83
2019-02-12T03:59:49.787Z,88.66
2019-02-12T04:02:20.261Z,88.03
2019-02-12T04:04:50.872Z,87.97
2019-02-12T04:07:21.081Z,87.61
2019-02-12T04:09:51.374Z,87.42
2019-02-12T04:12:21.566Z,87.58
2019-02-12T04:14:52.108Z,87.62
2019-02-12T04:17:22.327Z,87.31
2019-02-12T04:19:52.595Z,86.93
2019-02-12T04:22:23.331Z,86.98
2019-02-12T04:24:53.619Z,86.79
2019-02-12T04:27:23.834Z,86.78
2019-02-12T04:29:54.123Z,86.83
2019-02-12T04:32:24.311Z,86.92
2019-02-12T04:34:54.558Z,86.83
2019-02-12T04:37:24.802Z,86.67
2019-02-12T04:39:55.167Z,86.67
2019-02-12T04:42:25.478Z,86.72
2019-02-12T04:44:55.664Z,86.74
2019-02-12T04:47:25.977Z,86.94
2019-02-12T04:49:56.135Z,86.92
2019-02-12T04:52:31.895Z,86.80
2019-02-12T04:54:58.514Z,86.85
2019-02-12T04:57:28.732Z,86.89
2019-02-12T04:59:58.969Z,87.42
2019-02-12T05:02:29.438Z,87.45
2019-02-12T05:04:59.742Z,86.76
2019-02-12T05:07:30.019Z,87.00
2019-02-12T05:10:00.349Z,86.58
2019-02-12T05:12:30.710Z,86.72
2019-02-12T05:15:01.185Z,86.49
2019-02-12T05:17:31.545Z,85.90
2019-02-12T05:20:01.741Z,85.84
2019-02-12T05:22:42.896Z,85.45
2019-02-12T05:25:03.955Z,85.51
2019-02-12T05:27:34.339Z,85.77
2019-02-12T05:30:04.950Z,86.82
2019-02-12T05:32:35.421Z,86.94
2019-02-12T05:35:05.969Z,86.74
2019-02-12T05:37:36.354Z,85.43
2019-02-12T05:40:07.436Z,85.00
2019-02-12T05:42:37.705Z,84.73
2019-02-12T05:45:08.867Z,84.48
2019-02-12T05:47:39.296Z,83.51
2019-02-12T05:50:11.455Z,83.54
2019-02-12T05:52:42.415Z,83.38
2019-02-12T05:55:12.741Z,83.62
2019-02-12T05:57:43.356Z,82.93
2019-02-12T06:00:16.482Z,82.27
2019-02-12T06:02:47.056Z,82.09
2019-02-12T06:05:27.435Z,81.75
2019-02-12T06:07:57.823Z,81.00
2019-02-12T06:10:28.085Z,80.48
2019-02-12T06:12:58.379Z,80.34
2019-02-12T06:15:28.588Z,80.75
2019-02-12T06:18:01.146Z,81.38
2019-02-12T06:20:31.500Z,82.95
2019-02-12T06:23:03.799Z,83.49
2019-02-12T06:25:33.745Z,82.88
2019-02-12T06:28:04.060Z,82.98
2019-02-12T06:30:34.451Z,82.22
2019-02-12T06:33:10.990Z,82.08
2019-02-12T06:35:41.371Z,82.09
2019-02-12T06:38:12.058Z,82.21
2019-02-12T06:40:43.942Z,82.19
2019-02-12T06:43:16.687Z,83.10
2019-02-12T06:45:47.068Z,82.45
2019-02-12T06:48:17.366Z,83.13
2019-02-12T06:50:58.504Z,82.96
2019-02-12T06:53:30.016Z,82.50
2019-02-12T06:56:00.332Z,83.04
2019-02-12T06:58:31.167Z,83.43
2019-02-12T07:01:04.804Z,83.10
2019-02-12T07:03:58.944Z,82.70
2019-02-12T07:06:51.200Z,81.99
2019-02-12T07:09:35.525Z,82.11
2019-02-12T07:12:46.092Z,81.93
2019-02-12T07:15:38.494Z,81.02
2019-02-12T07:18:54.590Z,80.46
2019-02-12T07:21:52.002Z,80.27
2019-02-12T07:25:16.155Z,80.08
2019-02-12T07:28:30.663Z,79.76
2019-02-12T07:31:55.220Z,79.19
2019-02-12T07:34:52.276Z,79.40
2019-02-12T07:38:13.782Z,79.16
2019-02-12T07:41:20.711Z,78.84
2019-02-12T07:44:39.673Z,78.49
2019-02-12T07:47:27.179Z,79.36
2019-02-12T07:50:39.693Z,80.28
2019-02-12T07:53:49.826Z,80.20
2019-02-12T07:57:31.139Z,80.36
2019-02-12T08:00:26.641Z,80.36
2019-02-12T08:03:22.990Z,80.32
2019-02-12T08:06:10.368Z,80.11
2019-02-12T08:09:16.214Z,80.05
2019-02-12T08:12:05.188Z,80.07
2019-02-12T08:15:28.253Z,81.59
2019-02-12T08:18:42.782Z,83.69
2019-02-12T08:21:54.128Z,83.46
2019-02-12T08:25:01.676Z,83.86
2019-02-12T08:28:00.311Z,83.28
2019-02-12T08:30:39.917Z,83.17
2019-02-12T08:33:51.703Z,83.27
2019-02-12T08:37:00.356Z,82.31
2019-02-12T08:40:04.068Z,82.74
2019-02-12T08:43:01.629Z,82.46
2019-02-12T08:46:14.554Z,83.17
2019-02-12T08:49:38.259Z,82.58
2019-02-12T08:52:41.859Z,82.36
2019-02-12T08:55:53.027Z,81.87
2019-02-12T08:58:37.989Z,82.31
2019-02-12T09:01:38.631Z,82.91
2019-02-12T09:04:37.815Z,82.12
2019-02-12T09:07:26.639Z,82.53
2019-02-12T09:10:24.339Z,82.36
2019-02-12T09:13:30.877Z,82.08
2019-02-12T09:16:44.962Z,81.94
2019-02-12T09:19:38.288Z,81.93
2019-02-12T09:22:36.520Z,81.85
2019-02-12T09:25:47.168Z,82.01
2019-02-12T09:28:59.929Z,81.43
2019-02-12T09:32:26.329Z,80.91
2019-02-12T09:35:17.731Z,82.66
2019-02-12T09:38:13.168Z,81.30
2019-02-12T09:41:22.929Z,81.43
2019-02-12T09:44:17.338Z,81.80
2019-02-12T09:47:17.528Z,82.30
2019-02-12T09:50:46.597Z,80.48
2019-02-12T09:54:08.581Z,79.15
2019-02-12T09:57:28.468Z,79.73
2019-02-12T10:00:36.230Z,78.26
2019-02-12T10:03:44.521Z,76.15
2019-02-12T10:06:46.043Z,77.01
2019-02-12T10:09:54.952Z,77.67
2019-02-12T10:12:49.794Z,77.77
2019-02-12T10:15:47.986Z,76.24
2019-02-12T10:18:41.794Z,75.96
2019-02-12T10:21:36.887Z,75.67
2019-02-12T10:24:43.594Z,76.92
2019-02-12T10:28:03.581Z,77.19
2019-02-12T10:31:10.258Z,77.26
2019-02-12T10:33:40.922Z,78.03
2019-02-12T10:36:11.343Z,76.71
2019-02-12T10:38:41.897Z,78.11
2019-02-12T10:41:12.286Z,79.41
2019-02-12T10:43:42.669Z,79.29
2019-02-12T10:46:13.098Z,79.16
2019-02-12T10:48:43.441Z,80.02
2019-02-12T10:51:13.840Z,79.80
2019-02-12T10:53:44.222Z,79.32
2019-02-12T10:56:17.163Z,79.74
2019-02-12T10:58:47.700Z,79.91
2019-02-12T11:01:18.748Z,79.94
2019-02-12T11:03:49.648Z,80.42
2019-02-12T11:06:21.357Z,80.77
2019-02-12T11:08:52.110Z,81.10
2019-02-12T11:11:23.430Z,80.64
2019-02-12T11:13:54.102Z,82.28
2019-02-12T11:16:25.351Z,84.45
2019-02-12T11:18:56.211Z,85.92
2019-02-12T11:21:27.430Z,88.16
2019-02-12T11:23:58.742Z,89.09
2019-02-12T11:26:30.577Z,89.52
2019-02-12T11:29:00.979Z,90.44
2019-02-12T11:31:31.569Z,91.37
2019-02-12T11:34:03.242Z,91.20
2019-02-12T11:36:33.775Z,90.40
2019-02-12T11:39:05.404Z,89.00
2019-02-12T11:41:36.221Z,87.99
2019-02-12T11:44:09.171Z,88.23
2019-02-12T11:46:40.082Z,87.81
2019-02-12T11:49:10.567Z,88.96
2019-02-12T11:51:41.280Z,88.78
2019-02-12T11:54:11.789Z,89.86
2019-02-12T11:56:42.483Z,88.86
2019-02-12T11:59:12.870Z,87.97
2019-02-12T12:01:44.014Z,87.18
2019-02-12T12:04:14.383Z,87.90
2019-02-12T12:06:44.958Z,88.24
2019-02-12T12:09:15.156Z,89.14
2019-02-12T12:11:45.639Z,88.92
2019-02-12T12:14:15.929Z,87.92
2019-02-12T12:16:46.218Z,86.84
2019-02-12T12:19:16.647Z,86.71
2019-02-12T12:21:46.957Z,85.18
2019-02-12T12:24:17.379Z,84.52
2019-02-12T12:26:47.586Z,84.65
2019-02-12T12:29:17.853Z,83.21
2019-02-12T12:31:48.078Z,82.06
2019-02-12T12:34:18.475Z,82.14
2019-02-12T12:36:48.717Z,82.15
2019-02-12T12:39:19.103Z,81.56
2019-02-12T12:41:49.407Z,81.35
2019-02-12T12:44:19.703Z,80.61
2019-02-12T12:46:50.094Z,80.46
2019-02-12T12:49:20.573Z,80.63
2019-02-12T12:51:50.939Z,81.51
2019-02-12T12:54:21.443Z,81.87
2019-02-12T12:56:51.684Z,81.00
2019-02-12T12:59:24.919Z,80.62
2019-02-12T13:01:55.189Z,80.13
2019-02-12T13:04:25.646Z,80.03
2019-02-12T13:06:55.986Z,79.38
2019-02-12T13:09:26.209Z,79.75
2019-02-12T13:11:56.532Z,79.88
2019-02-12T13:14:28.347Z,79.86
2019-02-12T13:17:01.430Z,79.35
2019-02-12T13:19:34.077Z,78.71
2019-02-12T13:22:06.654Z,78.14
2019-02-12T13:24:39.222Z,80.18
2019-02-12T13:27:11.689Z,80.53
2019-02-12T13:29:44.111Z,80.13
2019-02-12T13:32:16.998Z,81.92
2019-02-12T13:34:47.497Z,81.98
2019-02-12T13:37:17.804Z,81.45
2019-02-12T13:39:49.131Z,82.07
2019-02-12T13:42:19.416Z,82.07
2019-02-12T13:44:49.634Z,81.60
2019-02-12T13:47:19.934Z,81.53
2019-02-12T13:49:50.232Z,82.33
2019-02-12T13:52:20.470Z,81.43
2019-02-12T13:54:50.743Z,81.56
2019-02-12T13:57:20.957Z,80.83
2019-02-12T13:59:51.261Z,80.30
2019-02-12T14:02:21.578Z,80.58
2019-02-12T14:04:51.850Z,81.27
2019-02-12T14:07:22.279Z,81.48
2019-02-12T14:09:52.529Z,81.31
2019-02-12T14:12:23.303Z,80.83
2019-02-12T14:14:53.639Z,80.89
2019-02-12T14:17:23.871Z,80.67
2019-02-12T14:19:54.269Z,80.43
2019-02-12T14:22:24.515Z,80.05
2019-02-12T14:24:54.823Z,79.97
2019-02-12T14:27:25.210Z,80.27
2019-02-12T14:29:55.478Z,80.28
2019-02-12T14:32:27.027Z,79.62
2019-02-12T14:34:58.680Z,79.64
2019-02-12T14:37:28.967Z,79.95
2019-02-12T14:39:59.405Z,79.35
2019-02-12T14:42:29.591Z,78.99
2019-02-12T14:45:00.870Z,78.76
2019-02-12T14:47:31.181Z,79.32
2019-02-12T14:50:02.225Z,79.45
2019-02-12T14:52:32.688Z,79.95
2019-02-12T14:55:03.017Z,80.21
2019-02-12T14:57:33.315Z,80.09
2019-02-12T15:00:03.736Z,79.58
2019-02-12T15:02:33.993Z,80.01
2019-02-12T15:05:05.169Z,80.66
2019-02-12T15:07:36.162Z,81.15
2019-02-12T15:10:09.648Z,80.58
2019-02-12T15:12:40.479Z,80.81
2019-02-12T15:15:10.901Z,80.91
2019-02-12T15:17:41.187Z,80.35
2019-02-12T15:20:11.450Z,80.89
2019-02-12T15:22:41.798Z,81.02
2019-02-12T15:25:12.388Z,80.74
2019-02-12T15:27:43.447Z,81.12
2019-02-12T15:30:14.748Z,80.45
2019-02-12T15:32:45.121Z,80.33
2019-02-12T15:35:15.388Z,80.52
2019-02-12T15:37:45.586Z,80.28
2019-02-12T15:40:18.286Z,79.78
2019-02-12T15:42:50.642Z,80.69
2019-02-12T15:45:21.899Z,79.87
2019-02-12T15:47:52.346Z,80.73
2019-02-12T15:50:25.715Z,80.75
2019-02-12T15:52:58.774Z,81.48
2019-02-12T15:55:30.691Z,80.64
2019-02-12T15:58:04.279Z,81.08
2019-02-12T16:00:36.733Z,81.09
2019-02-12T16:03:10.073Z,81.23
2019-02-12T16:05:41.621Z,80.51
2019-02-12T16:08:12.943Z,80.93
2019-02-12T16:10:44.064Z,81.57
2019-02-12T16:13:15.814Z,81.60
2019-02-12T16:15:47.210Z,81.14
2019-02-12T16:18:21.346Z,80.84
2019-02-12T16:20:51.602Z,80.97
2019-02-12T16:23:21.827Z,81.22
2019-02-12T16:25:59.374Z,81.80
2019-02-12T16:28:24.124Z,81.69
2019-02-12T16:30:54.455Z,81.50
2019-02-12T16:33:24.637Z,81.71
2019-02-12T16:35:54.862Z,81.50
2019-02-12T16:38:25.139Z,80.69
2019-02-12T16:40:55.411Z,80.48
2019-02-12T16:43:25.828Z,79.82
2019-02-12T16:46:05.373Z,80.00
2019-02-12T16:48:36.223Z,80.44
2019-02-12T16:51:06.509Z,81.54
2019-02-12T16:53:36.863Z,82.07
2019-02-12T16:56:08.572Z,82.32
2019-02-12T16:58:39.134Z,82.90
2019-02-12T17:01:09.371Z,83.10
2019-02-12T17:03:39.664Z,82.54
2019-02-12T17:06:10.774Z,81.62
2019-02-12T17:08:41.052Z,81.99
2019-02-12T17:11:11.342Z,81.77
2019-02-12T17:13:42.545Z,82.21
2019-02-12T17:16:12.899Z,81.96
2019-02-12T17:18:43.146Z,82.69
2019-02-12T17:21:13.383Z,82.91
2019-02-12T17:23:43.881Z,82.61
2019-02-12T17:26:16.459Z,82.35
2019-02-12T17:28:46.090Z,81.63
2019-02-12T17:31:16.347Z,82.21
2019-02-12T17:33:46.538Z,82.80
2019-02-12T17:36:16.798Z,83.20
2019-02-12T17:38:47.097Z,83.93
2019-02-12T17:41:17.286Z,83.90
2019-02-12T17:43:47.595Z,84.04
2019-02-12T17:46:17.805Z,84.26
2019-02-12T17:48:48.101Z,84.45
2019-02-12T17:51:18.394Z,84.91
2019-02-12T17:53:49.574Z,84.93
2019-02-12T17:56:24.891Z,84.68
2019-02-12T17:58:51.820Z,85.34
2019-02-12T18:01:22.109Z,85.39
2019-02-12T18:03:52.444Z,85.59
2019-02-12T18:06:22.700Z,85.90
2019-02-12T18:08:52.984Z,85.49
2019-02-12T18:11:23.326Z,84.91
2019-02-12T18:13:53.829Z,85.43
2019-02-12T18:16:24.561Z,85.45
2019-02-12T18:18:54.877Z,85.26
2019-02-12T18:21:25.114Z,84.94
2019-02-12T18:23:55.485Z,85.40
2019-02-12T18:26:33.174Z,85.33
2019-02-12T18:28:57.927Z,85.57
2019-02-12T18:31:28.211Z,85.59
2019-02-12T18:33:58.485Z,85.62
2019-02-12T18:36:28.725Z,86.11
2019-02-12T18:38:59.269Z,85.65
2019-02-12T18:41:29.464Z,85.18
2019-02-12T18:43:59.785Z,85.03
2019-02-12T18:46:30.032Z,84.85
2019-02-12T18:49:00.245Z,85.47
2019-02-12T18:51:30.452Z,85.60
2019-02-12T18:54:00.882Z,85.13
2019-02-12T18:56:31.100Z,85.42
2019-02-12T18:59:01.436Z,85.55
2019-02-12T19:01:31.749Z,85.57
2019-02-12T19:04:02.149Z,85.26
2019-02-12T19:06:32.568Z,85.21
2019-02-12T19:09:02.997Z,85.05
2019-02-12T19:11:33.259Z,84.90
2019-02-12T19:14:03.922Z,84.94
2019-02-12T19:16:34.359Z,85.37
2019-02-12T19:19:04.714Z,85.05
2019-02-12T19:21:35.101Z,85.27
2019-02-12T19:24:05.611Z,85.26
2019-02-12T19:26:35.899Z,85.05
2019-02-12T19:29:06.115Z,85.01
2019-02-12T19:31:37.986Z,84.92
2019-02-12T19:34:08.234Z,84.94
2019-02-12T19:36:39.099Z,84.56
2019-02-12T19:39:09.351Z,84.69
2019-02-12T19:41:39.556Z,84.62
2019-02-12T19:44:09.826Z,84.36
2019-02-12T19:46:40.154Z,84.65
2019-02-12T19:49:10.455Z,84.62
2019-02-12T19:51:40.933Z,84.56
2019-02-12T19:54:11.380Z,84.19
2019-02-12T19:56:41.678Z,84.27
2019-02-12T19:59:11.929Z,84.12
2019-02-12T20:01:42.211Z,84.06
2019-02-12T20:04:12.406Z,84.21
2019-02-12T20:06:42.849Z,84.19
2019-02-12T20:09:22.905Z,83.63
2019-02-12T20:11:53.232Z,83.93
2019-02-12T20:14:23.620Z,84.05
2019-02-12T20:16:53.847Z,83.94
2019-02-12T20:19:24.092Z,83.86
2019-02-12T20:21:54.275Z,83.61
2019-02-12T20:24:24.624Z,83.12
2019-02-12T20:26:54.944Z,83.39
2019-02-12T20:29:25.160Z,83.26
2019-02-12T20:31:56.395Z,83.53
2019-02-12T20:34:27.826Z,83.06
2019-02-12T20:36:59.069Z,82.97
2019-02-12T20:39:29.525Z,83.22
2019-02-12T20:41:59.827Z,82.77
2019-02-12T20:44:30.084Z,83.17
2019-02-12T20:47:00.306Z,83.14
2019-02-12T20:49:30.603Z,82.86
2019-02-12T20:52:00.803Z,82.70
2019-02-12T20:54:34.087Z,83.09
2019-02-12T20:57:04.388Z,83.34
2019-02-12T20:59:35.578Z,83.12
2019-02-12T21:02:05.874Z,83.27
2019-02-12T21:04:36.157Z,83.21
2019-02-12T21:07:06.457Z,83.50
2019-02-12T21:09:36.675Z,83.74
2019-02-12T21:12:06.879Z,83.18
2019-02-12T21:14:37.283Z,83.27
2019-02-12T21:17:07.543Z,82.92
2019-02-12T21:19:37.886Z,82.96
2019-02-12T21:22:08.052Z,83.16
2019-02-12T21:24:38.356Z,83.05
2019-02-12T21:27:08.703Z,82.98
2019-02-12T21:29:38.965Z,82.64
2019-02-12T21:32:09.203Z,82.89
2019-02-12T21:34:39.536Z,82.71
2019-02-12T21:37:09.754Z,83.09
2019-02-12T21:39:39.983Z,82.81
2019-02-12T21:42:10.243Z,82.65
2019-02-12T21:44:40.476Z,82.85
2019-02-12T21:47:10.857Z,82.93
2019-02-12T21:49:41.129Z,82.61
2019-02-12T21:52:11.356Z,82.46
2019-02-12T21:54:41.592Z,82.71
2019-02-12T21:57:11.799Z,82.74
2019-02-12T21:59:42.138Z,82.57
2019-02-12T22:02:12.350Z,82.87
2019-02-12T22:04:42.754Z,82.81
2019-02-12T22:07:13.107Z,82.94
2019-02-12T22:09:43.469Z,83.16
2019-02-12T22:12:13.712Z,83.07
2019-02-12T22:14:44.238Z,83.19
2019-02-12T22:17:14.468Z,83.63
2019-02-12T22:19:44.756Z,83.55
2019-02-12T22:22:15.253Z,83.15
2019-02-12T22:24:45.448Z,83.41
2019-02-12T22:27:15.690Z,83.62
2019-02-12T22:29:45.955Z,84.11
2019-02-12T22:32:16.240Z,84.18
2019-02-12T22:34:46.415Z,84.28
2019-02-12T22:37:16.712Z,84.28
2019-02-12T22:39:47.150Z,84.47
2019-02-12T22:42:17.414Z,84.31
2019-02-12T22:44:48.120Z,84.67
2019-02-12T22:47:18.313Z,84.52
2019-02-12T22:49:48.551Z,84.39
2019-02-12T22:52:18.753Z,84.66
2019-02-12T22:54:49.192Z,84.70
2019-02-12T22:57:19.435Z,84.78
2019-02-12T22:59:49.618Z,84.65
2019-02-12T23:02:19.879Z,83.87
2019-02-12T23:04:50.879Z,84.53
2019-02-12T23:07:21.186Z,84.65
2019-02-12T23:09:51.413Z,84.43
2019-02-12T23:12:22.912Z,84.56
2019-02-12T23:14:53.543Z,84.60
2019-02-12T23:17:23.736Z,84.31
2019-02-12T23:19:53.965Z,84.41
2019-02-12T23:22:24.183Z,84.40
2019-02-12T23:24:54.379Z,83.75
2019-02-12T23:27:24.761Z,84.04
2019-02-12T23:29:55.000Z,84.24
2019-02-12T23:32:25.290Z,83.94
2019-02-12T23:34:57.353Z,84.08
2019-02-12T23:37:27.893Z,83.94
2019-02-12T23:39:58.133Z,83.95
2019-02-12T23:42:28.317Z,84.25
2019-02-12T23:44:58.609Z,84.19
2019-02-12T23:47:28.931Z,84.56
2019-02-12T23:49:59.191Z,84.84
2019-02-12T23:52:29.422Z,85.21
2019-02-12T23:54:59.654Z,85.73
2019-02-12T23:57:30.951Z,85.97
